createdAt,value
2019-02-20T05:58:37.230Z,31.18
2019-02-20T06:00:37.184Z,31.17
2019-02-20T06:02:37.157Z,31.18
2019-02-20T06:04:37.157Z,31.48
2019-02-20T06:05:37.118Z,31.37
2019-02-20T06:08:37.087Z,31.37
2019-02-20T06:10:37.074Z,31.46
2019-02-20T06:12:37.047Z,31.37
2019-02-20T06:13:37.036Z,31.28
2019-02-20T06:14:37.021Z,31.18
2019-02-20T06:17:36.990Z,31.26
2019-02-20T06:18:36.990Z,31.17
2019-02-20T06:20:36.965Z,31.37
2019-02-20T06:22:36.937Z,31.46
2019-02-20T06:23:36.927Z,31.37
2019-02-20T06:25:58.491Z,31.06
2019-02-20T06:26:58.525Z,31.46
2019-02-20T06:29:58.425Z,31.87
2019-02-20T06:30:58.429Z,31.46
2019-02-20T06:31:58.449Z,31.46
2019-02-20T06:32:58.389Z,31.46
2019-02-20T06:33:58.393Z,31.46
2019-02-20T06:34:58.438Z,31.37
2019-02-20T06:35:58.358Z,31.06
2019-02-20T06:36:58.372Z,31.37
2019-02-20T06:37:58.342Z,31.35
2019-02-20T06:38:58.326Z,31.56
2019-02-20T06:39:58.316Z,31.35
2019-02-20T06:40:58.314Z,31.06
2019-02-20T06:41:58.316Z,31.25
2019-02-20T06:42:58.282Z,31.37
2019-02-20T06:43:58.396Z,32.07
2019-02-20T06:44:58.250Z,32.05
2019-02-20T06:45:58.245Z,32.17
2019-02-20T06:46:58.239Z,31.65
2019-02-20T06:47:58.221Z,31.85
2019-02-20T06:48:58.237Z,32.05
2019-02-20T06:49:58.407Z,32.05
2019-02-20T06:50:58.186Z,32.15
2019-02-20T06:51:58.182Z,31.95
2019-02-20T06:52:58.298Z,32.35
2019-02-20T06:53:58.365Z,32.15
2019-02-20T06:54:58.202Z,32.05
2019-02-20T06:55:58.129Z,32.35
2019-02-20T06:56:58.119Z,32.15
2019-02-20T06:57:58.127Z,32.05
2019-02-20T06:58:58.098Z,32.15
2019-02-20T06:59:58.188Z,32.15
2019-02-20T07:00:58.068Z,32.15
2019-02-20T07:01:58.067Z,31.95
2019-02-20T07:02:58.146Z,31.95
2019-02-20T07:03:58.252Z,32.15
2019-02-20T07:04:58.021Z,32.15
2019-02-20T07:05:58.039Z,31.95
2019-02-20T07:06:58.003Z,31.95
2019-02-20T07:07:57.991Z,32.35
2019-02-20T07:08:57.994Z,31.85
2019-02-20T07:09:57.964Z,32.25
2019-02-20T07:10:57.962Z,32.35
2019-02-20T07:11:57.999Z,32.15
2019-02-20T07:12:57.961Z,32.05
2019-02-20T07:13:57.923Z,32.05
2019-02-20T07:14:57.917Z,32.15
2019-02-20T07:15:57.909Z,32.15
2019-02-20T07:16:57.926Z,31.95
2019-02-20T07:17:57.995Z,32.65
2019-02-20T07:18:57.893Z,32.65
2019-02-20T07:19:57.866Z,32.54
2019-02-20T07:20:57.856Z,33.14
2019-02-20T07:21:57.841Z,33.44
2019-02-20T07:22:57.852Z,33.95
2019-02-20T07:23:57.814Z,33.34
2019-02-20T07:25:03.106Z,33.35
2019-02-20T07:26:19.318Z,33.84
2019-02-20T07:27:19.333Z,33.14
2019-02-20T07:28:19.350Z,33.84
2019-02-20T07:29:19.297Z,33.14
2019-02-20T07:30:19.325Z,33.44
2019-02-20T07:31:19.285Z,33.64
2019-02-20T07:32:19.440Z,33.54
2019-02-20T07:33:19.255Z,33.64
2019-02-20T07:34:19.248Z,33.64
2019-02-20T07:35:19.226Z,33.84
2019-02-20T07:36:19.224Z,34.14
2019-02-20T07:37:19.209Z,34.84
2019-02-20T07:38:19.180Z,34.54
2019-02-20T07:39:19.170Z,34.14
2019-02-20T07:40:19.190Z,34.24
2019-02-20T07:41:19.147Z,34.34
2019-02-20T07:42:19.260Z,33.74
2019-02-20T07:43:19.126Z,34.02
2019-02-20T07:44:19.121Z,33.64
2019-02-20T07:45:19.097Z,33.64
2019-02-20T07:46:19.098Z,33.23
2019-02-20T07:47:19.084Z,33.34
2019-02-20T07:48:19.082Z,33.44
2019-02-20T07:49:19.063Z,33.74
2019-02-20T07:50:19.055Z,33.34
2019-02-20T07:51:19.056Z,33.34
2019-02-20T07:52:19.029Z,33.14
2019-02-20T07:53:19.009Z,33.54
2019-02-20T07:54:19.015Z,33.14
2019-02-20T07:55:19.015Z,32.94
2019-02-20T07:56:18.991Z,33.23
2019-02-20T07:57:19.017Z,33.32
2019-02-20T07:58:18.974Z,33.44
2019-02-20T07:59:18.955Z,33.54
2019-02-20T08:00:18.949Z,33.32
2019-02-20T08:01:18.942Z,33.32
2019-02-20T08:18:19.679Z,33.22
2019-02-20T08:19:18.605Z,33.32
2019-02-20T08:20:18.584Z,33.32
2019-02-20T08:21:18.573Z,33.22
2019-02-20T08:22:18.568Z,33.72
2019-02-20T08:23:18.547Z,33.82
2019-02-20T08:24:18.546Z,33.32
2019-02-20T08:25:22.914Z,33.62
2019-02-20T08:26:18.516Z,33.62
2019-02-20T08:27:18.551Z,33.92
2019-02-20T08:28:18.494Z,33.12
2019-02-20T08:29:18.480Z,33.62
2019-02-20T08:30:18.465Z,33.12
2019-02-20T08:31:18.462Z,33.32
2019-02-20T08:32:18.470Z,33.82
2019-02-20T08:33:18.451Z,33.32
2019-02-20T08:34:18.422Z,33.22
2019-02-20T08:35:18.419Z,33.61
2019-02-20T08:36:18.419Z,33.20
2019-02-20T08:37:19.879Z,33.61
2019-02-20T08:38:18.425Z,33.62
2019-02-20T08:39:18.379Z,33.00
2019-02-20T08:40:18.384Z,33.61
2019-02-20T08:41:18.336Z,33.31
2019-02-20T08:42:18.334Z,33.31
2019-02-20T08:43:18.537Z,33.11
2019-02-20T08:44:18.317Z,33.11
2019-02-20T08:45:18.352Z,33.61
2019-02-20T08:46:18.296Z,33.81
2019-02-20T08:47:18.287Z,33.31
2019-02-20T08:48:18.284Z,33.41
2019-02-20T08:49:18.248Z,33.20
2019-02-20T08:50:18.277Z,33.31
2019-02-20T08:51:18.238Z,33.61
2019-02-20T08:52:18.232Z,33.61
2019-02-20T08:53:18.207Z,33.70
2019-02-20T08:54:18.190Z,33.50
2019-02-20T08:55:18.926Z,33.49
2019-02-20T08:56:18.184Z,33.59
2019-02-20T08:57:18.167Z,33.50
2019-02-20T08:58:18.162Z,33.20
2019-02-20T08:59:18.139Z,33.49
2019-02-20T09:00:18.144Z,33.59
2019-02-20T09:01:18.233Z,33.41
2019-02-20T09:02:40.323Z,33.09
2019-02-20T09:04:03.906Z,32.99
2019-02-20T09:05:02.334Z,33.19
2019-02-20T09:06:02.555Z,33.69
2019-02-20T09:07:02.307Z,33.39
2019-02-20T09:08:02.327Z,33.49
2019-02-20T09:09:02.300Z,33.29
2019-02-20T09:10:02.274Z,33.59
2019-02-20T09:11:02.262Z,33.59
2019-02-20T09:12:02.875Z,33.69
2019-02-20T09:13:02.769Z,33.69
2019-02-20T09:14:02.251Z,33.49
2019-02-20T09:15:02.221Z,33.49
2019-02-20T09:16:02.219Z,33.69
2019-02-20T09:17:25.386Z,33.69
2019-02-20T09:18:25.368Z,33.47
2019-02-20T09:19:25.398Z,33.49
2019-02-20T09:20:25.334Z,33.49
2019-02-20T09:21:25.461Z,33.49
2019-02-20T09:22:25.317Z,33.88
2019-02-20T09:23:25.308Z,33.67
2019-02-20T09:24:25.325Z,33.97
2019-02-20T09:25:25.272Z,33.17
2019-02-20T09:26:25.282Z,33.69
2019-02-20T09:27:25.251Z,33.09
2019-02-20T09:28:25.249Z,33.47
2019-02-20T09:29:25.224Z,33.58
2019-02-20T09:30:28.571Z,33.88
2019-02-20T09:31:25.206Z,33.77
2019-02-20T09:32:25.186Z,33.88
2019-02-20T09:33:25.187Z,33.27
2019-02-20T09:34:25.223Z,33.58
2019-02-20T09:35:25.232Z,33.17
2019-02-20T09:36:25.159Z,33.58
2019-02-20T09:37:25.182Z,33.47
2019-02-20T09:38:25.142Z,33.47
2019-02-20T09:39:25.160Z,33.67
2019-02-20T09:40:25.114Z,33.95
2019-02-20T09:41:25.102Z,33.97
2019-02-20T09:42:25.193Z,33.27
2019-02-20T09:43:25.078Z,33.17
2019-02-20T09:44:25.087Z,33.27
2019-02-20T09:45:25.044Z,33.17
2019-02-20T09:46:25.053Z,33.27
2019-02-20T09:47:25.040Z,33.16
2019-02-20T09:48:25.018Z,33.17
2019-02-20T09:49:25.038Z,32.97
2019-02-20T09:50:25.004Z,32.86
2019-02-20T09:51:25.029Z,32.97
2019-02-20T09:52:25.353Z,33.17
2019-02-20T09:53:25.016Z,32.16
2019-02-20T09:54:24.995Z,32.28
2019-02-20T09:55:24.950Z,32.28
2019-02-20T09:56:24.977Z,32.37
2019-02-20T09:57:24.921Z,32.78
2019-02-20T09:58:24.930Z,32.47
2019-02-20T09:59:24.895Z,32.76
2019-02-20T10:00:24.996Z,32.46
2019-02-20T10:01:24.901Z,32.37
2019-02-20T10:02:25.874Z,32.56
2019-02-20T10:03:24.849Z,32.36
2019-02-20T10:04:24.848Z,32.66
2019-02-20T10:05:24.826Z,32.56
2019-02-20T10:06:26.208Z,32.36
2019-02-20T10:07:24.806Z,32.47
2019-02-20T10:08:24.830Z,32.46
2019-02-20T10:09:24.784Z,32.46
2019-02-20T10:10:24.800Z,32.47
2019-02-20T10:11:24.759Z,32.46
2019-02-20T10:12:24.776Z,32.46
2019-02-20T10:13:24.746Z,32.86
2019-02-20T10:14:24.733Z,32.46
2019-02-20T10:15:24.749Z,32.28
2019-02-20T10:16:24.749Z,32.16
2019-02-20T10:17:24.700Z,32.37
2019-02-20T10:18:24.736Z,32.17
2019-02-20T10:19:24.691Z,32.16
2019-02-20T10:20:24.890Z,32.26
2019-02-20T10:21:24.659Z,32.28
2019-02-20T10:22:24.649Z,33.27
2019-02-20T10:23:24.630Z,32.36
2019-02-20T10:24:24.626Z,32.46
2019-02-20T10:25:24.607Z,32.46
2019-02-20T10:26:24.804Z,32.47
2019-02-20T10:27:25.583Z,32.46
2019-02-20T10:28:26.225Z,32.47
2019-02-20T10:29:24.570Z,32.76
2019-02-20T10:30:24.562Z,32.47
2019-02-20T10:31:24.560Z,32.78
2019-02-20T10:32:24.528Z,32.26
2019-02-20T10:33:24.528Z,32.36
2019-02-20T10:34:24.509Z,33.06
2019-02-20T10:35:24.515Z,32.96
2019-02-20T10:36:24.487Z,33.16
2019-02-20T10:37:24.540Z,33.16
2019-02-20T10:38:24.468Z,33.36
2019-02-20T10:39:24.469Z,33.06
2019-02-20T10:40:24.436Z,33.36
2019-02-20T10:41:24.440Z,32.96
2019-02-20T10:42:24.492Z,33.46
2019-02-20T10:43:24.409Z,33.56
2019-02-20T10:44:24.412Z,33.86
2019-02-20T10:45:24.425Z,33.26
2019-02-20T10:46:24.384Z,33.46
2019-02-20T10:47:24.372Z,33.36
2019-02-20T10:48:24.355Z,33.56
2019-02-20T10:49:24.424Z,33.26
2019-02-20T10:50:24.330Z,33.46
2019-02-20T10:51:24.321Z,33.26
2019-02-20T10:52:24.328Z,33.46
2019-02-20T10:53:24.320Z,33.46
2019-02-20T10:54:24.352Z,33.46
2019-02-20T10:55:24.346Z,33.26
2019-02-20T10:56:24.284Z,33.26
2019-02-20T10:57:24.365Z,33.26
2019-02-20T10:58:24.289Z,33.26
2019-02-20T10:59:24.235Z,33.16
2019-02-20T11:00:24.644Z,33.24
2019-02-20T11:01:24.241Z,33.66
2019-02-20T11:02:24.221Z,33.56
2019-02-20T11:03:24.193Z,33.76
2019-02-20T11:04:24.194Z,33.66
2019-02-20T11:05:26.976Z,33.46
2019-02-20T11:06:24.175Z,33.46
2019-02-20T11:07:24.170Z,33.76
2019-02-20T11:08:24.173Z,33.76
2019-02-20T11:09:24.132Z,33.36
2019-02-20T11:10:24.288Z,33.26
2019-02-20T11:11:24.112Z,33.46
2019-02-20T11:12:24.128Z,33.06
2019-02-20T11:13:24.084Z,33.26
2019-02-20T11:14:24.087Z,33.46
2019-02-20T11:15:24.116Z,33.46
2019-02-20T11:16:24.059Z,33.74
2019-02-20T11:17:24.347Z,33.56
2019-02-20T11:18:24.077Z,33.64
2019-02-20T11:19:24.041Z,33.56
2019-02-20T11:20:24.031Z,33.64
2019-02-20T11:21:24.002Z,33.16
2019-02-20T11:22:23.989Z,33.95
2019-02-20T11:23:23.982Z,33.16
2019-02-20T11:24:23.982Z,33.26
2019-02-20T11:25:23.975Z,33.46
2019-02-20T11:26:23.947Z,33.56
2019-02-20T11:27:24.000Z,33.56
2019-02-20T11:28:26.991Z,33.16
2019-02-20T11:29:23.926Z,33.16
2019-02-20T11:30:23.939Z,33.14
2019-02-20T11:31:23.910Z,33.06
2019-02-20T11:32:23.882Z,33.46
2019-02-20T11:33:23.876Z,33.46
2019-02-20T11:34:23.865Z,33.26
2019-02-20T11:35:23.851Z,33.26
2019-02-20T11:36:23.891Z,33.26
2019-02-20T11:37:23.833Z,32.96
2019-02-20T11:38:23.818Z,33.26
2019-02-20T11:39:23.818Z,32.26
2019-02-20T11:40:24.545Z,32.16
2019-02-20T11:41:23.909Z,32.06
2019-02-20T11:42:23.772Z,32.26
2019-02-20T11:43:23.784Z,32.16
2019-02-20T11:44:23.770Z,32.26
2019-02-20T11:45:23.749Z,32.56
2019-02-20T11:46:23.762Z,32.34
2019-02-20T11:47:24.024Z,32.55
2019-02-20T11:48:23.754Z,32.34
2019-02-20T11:49:23.700Z,32.46
2019-02-20T11:50:23.704Z,32.44
2019-02-20T11:51:23.714Z,32.14
2019-02-20T11:52:23.688Z,32.06
2019-02-20T11:53:23.655Z,32.64
2019-02-20T11:54:23.676Z,32.64
2019-02-20T11:55:23.641Z,32.26
2019-02-20T11:56:26.696Z,32.66
2019-02-20T11:57:23.649Z,32.26
2019-02-20T11:58:23.606Z,32.46
2019-02-20T11:59:23.619Z,32.56
2019-02-20T12:00:23.716Z,32.46
2019-02-20T12:01:23.567Z,32.36
2019-02-20T12:02:25.378Z,32.56
2019-02-20T12:03:23.557Z,32.66
2019-02-20T12:04:23.552Z,32.36
2019-02-20T12:05:23.539Z,32.26
2019-02-20T12:06:23.556Z,32.36
2019-02-20T12:07:23.516Z,32.46
2019-02-20T12:08:23.493Z,32.36
2019-02-20T12:09:23.492Z,32.26
2019-02-20T12:10:23.480Z,32.26
2019-02-20T12:11:23.482Z,32.66
2019-02-20T12:12:23.448Z,32.46
2019-02-20T12:13:23.458Z,32.46
2019-02-20T12:14:24.564Z,32.16
2019-02-20T12:15:23.450Z,32.26
2019-02-20T12:16:23.424Z,32.16
2019-02-20T12:17:23.408Z,32.46
2019-02-20T12:18:23.409Z,32.16
2019-02-20T12:19:23.680Z,32.16
2019-02-20T12:20:23.415Z,32.56
2019-02-20T12:21:23.364Z,32.46
2019-02-20T12:22:23.355Z,32.66
2019-02-20T12:23:23.365Z,32.66
2019-02-20T12:24:23.329Z,32.66
2019-02-20T12:25:23.336Z,32.46
2019-02-20T12:26:24.100Z,32.67
2019-02-20T12:27:23.301Z,32.46
2019-02-20T12:28:23.278Z,32.86
2019-02-20T12:29:23.316Z,32.76
2019-02-20T12:30:23.275Z,32.06
2019-02-20T12:31:23.253Z,32.26
2019-02-20T12:32:23.264Z,31.67
2019-02-20T12:33:23.238Z,31.76
2019-02-20T12:34:23.225Z,31.76
2019-02-20T12:35:23.219Z,31.56
2019-02-20T12:36:23.224Z,31.66
2019-02-20T12:37:25.022Z,31.86
2019-02-20T12:38:23.195Z,31.76
2019-02-20T12:39:23.195Z,31.76
2019-02-20T12:40:23.156Z,32.16
2019-02-20T12:41:23.145Z,31.86
2019-02-20T12:42:23.134Z,32.06
2019-02-20T12:43:23.170Z,31.96
2019-02-20T12:44:23.150Z,32.86
2019-02-20T12:45:23.125Z,32.36
2019-02-20T12:46:23.094Z,32.36
2019-02-20T12:47:23.099Z,32.06
2019-02-20T12:48:23.086Z,32.46
2019-02-20T12:49:23.074Z,31.86
2019-02-20T12:50:24.736Z,31.86
2019-02-20T12:51:23.056Z,32.26
2019-02-20T12:52:23.035Z,31.76
2019-02-20T12:53:25.106Z,31.75
2019-02-20T12:54:23.000Z,31.86
2019-02-20T12:55:23.204Z,32.25
2019-02-20T12:56:23.033Z,31.84
2019-02-20T12:57:22.996Z,32.44
2019-02-20T12:58:22.987Z,31.75
2019-02-20T12:59:22.955Z,31.84
2019-02-20T13:00:22.944Z,32.04
2019-02-20T13:01:22.932Z,32.14
2019-02-20T13:02:22.933Z,31.84
2019-02-20T13:03:23.105Z,31.96
2019-02-20T13:04:24.591Z,31.96
2019-02-20T13:05:22.898Z,32.14
2019-02-20T13:06:22.891Z,31.56
2019-02-20T13:07:22.970Z,32.16
2019-02-20T13:08:22.851Z,32.14
2019-02-20T13:09:22.963Z,31.84
2019-02-20T13:10:22.834Z,32.06
2019-02-20T13:11:22.842Z,31.95
2019-02-20T13:12:22.808Z,32.14
2019-02-20T13:13:22.806Z,31.64
2019-02-20T13:14:22.786Z,31.56
2019-02-20T13:15:22.990Z,32.16
2019-02-20T13:16:22.769Z,31.86
2019-02-20T13:17:22.765Z,31.84
2019-02-20T13:18:22.755Z,31.76
2019-02-20T13:19:22.741Z,31.76
2019-02-20T13:20:22.734Z,31.76
2019-02-20T13:21:22.712Z,32.14
2019-02-20T13:22:22.710Z,31.96
2019-02-20T13:23:22.689Z,31.86
2019-02-20T13:24:22.686Z,31.86
2019-02-20T13:25:22.669Z,31.86
2019-02-20T13:26:22.685Z,32.16
2019-02-20T13:27:23.230Z,30.86
2019-02-20T13:28:22.643Z,32.06
2019-02-20T13:29:22.627Z,31.16
2019-02-20T13:30:22.612Z,31.26
2019-02-20T13:31:22.599Z,31.36
2019-02-20T13:32:22.598Z,31.06
2019-02-20T13:33:22.580Z,31.45
2019-02-20T13:34:22.777Z,31.26
2019-02-20T13:35:22.562Z,31.46
2019-02-20T13:36:22.554Z,31.36
2019-02-20T13:37:22.550Z,31.46
2019-02-20T13:38:22.528Z,30.76
2019-02-20T13:39:22.517Z,31.86
2019-02-20T13:40:22.520Z,31.76
2019-02-20T13:41:22.492Z,31.66
2019-02-20T13:42:22.513Z,31.96
2019-02-20T13:43:22.475Z,32.16
2019-02-20T13:44:22.464Z,32.16
2019-02-20T13:45:22.458Z,31.96
2019-02-20T13:46:22.445Z,31.96
2019-02-20T14:01:29.539Z,31.76
2019-02-20T14:02:29.538Z,31.76
2019-02-20T14:03:29.513Z,31.86
2019-02-20T14:04:29.510Z,31.76
2019-02-20T14:05:29.499Z,31.76
2019-02-20T14:06:29.478Z,31.76
2019-02-20T14:07:29.461Z,32.06
2019-02-20T14:08:29.464Z,31.86
2019-02-20T14:09:29.550Z,32.16
2019-02-20T14:10:29.443Z,31.96
2019-02-20T14:11:29.419Z,31.86
2019-02-20T14:12:29.420Z,31.76
2019-02-20T14:13:29.398Z,31.86
2019-02-20T14:14:29.390Z,31.76
2019-02-20T14:15:29.413Z,31.96
2019-02-20T14:16:29.359Z,31.96
2019-02-20T14:17:30.756Z,31.96
2019-02-20T14:18:29.365Z,31.86
2019-02-20T14:19:29.331Z,31.76
2019-02-20T14:20:31.434Z,31.66
2019-02-20T14:21:29.315Z,31.76
2019-02-20T14:22:29.341Z,31.66
2019-02-20T14:23:29.780Z,31.96
2019-02-20T14:24:29.298Z,31.76
2019-02-20T14:25:29.280Z,31.16
2019-02-20T14:26:29.274Z,31.76
2019-02-20T14:27:29.239Z,31.06
2019-02-20T14:28:29.225Z,30.86
2019-02-20T14:29:29.215Z,31.86
2019-02-20T14:30:29.205Z,31.96
2019-02-20T14:31:29.207Z,30.86
2019-02-20T14:32:29.220Z,30.87
2019-02-20T14:33:29.170Z,31.76
2019-02-20T14:34:29.163Z,31.76
2019-02-20T14:35:29.267Z,31.67
2019-02-20T14:36:29.178Z,32.28
2019-02-20T14:37:29.127Z,32.06
2019-02-20T14:38:29.123Z,31.37
2019-02-20T14:39:29.129Z,31.76
2019-02-20T14:40:29.097Z,31.57
2019-02-20T14:41:29.086Z,31.78
2019-02-20T14:42:29.083Z,31.87
2019-02-20T14:43:29.057Z,31.78
2019-02-20T14:44:29.056Z,31.78
2019-02-20T14:45:29.047Z,30.87
2019-02-20T14:46:29.054Z,31.78
2019-02-20T14:47:29.019Z,30.87
2019-02-20T14:48:29.018Z,31.67
2019-02-20T14:49:29.009Z,31.48
2019-02-20T14:50:28.988Z,31.28
2019-02-20T14:51:28.987Z,30.98
2019-02-20T14:52:28.972Z,30.98
2019-02-20T14:53:28.993Z,31.28
2019-02-20T14:54:28.949Z,31.07
2019-02-20T14:55:28.946Z,31.26
2019-02-20T14:56:28.930Z,31.36
2019-02-20T14:57:51.163Z,31.06
2019-02-20T14:58:50.468Z,31.18
2019-02-20T14:59:50.455Z,31.18
2019-02-20T15:00:50.444Z,31.37
2019-02-20T15:01:51.431Z,31.26
2019-02-20T15:02:50.423Z,31.06
2019-02-20T15:03:50.429Z,31.26
2019-02-20T15:04:50.400Z,31.46
2019-02-20T15:05:50.397Z,31.26
2019-02-20T15:06:50.399Z,31.16
2019-02-20T15:07:50.371Z,31.76
2019-02-20T15:08:50.368Z,31.46
2019-02-20T15:09:50.367Z,31.57
2019-02-20T15:10:50.335Z,31.16
2019-02-20T15:11:50.333Z,31.06
2019-02-20T15:12:50.327Z,31.46
2019-02-20T15:13:50.320Z,31.16
2019-02-20T15:14:50.400Z,31.46
2019-02-20T15:15:50.280Z,31.46
2019-02-20T15:16:50.296Z,31.46
2019-02-20T15:17:50.358Z,31.46
2019-02-20T15:18:50.262Z,31.26
2019-02-20T15:19:50.254Z,31.06
2019-02-20T15:20:50.257Z,31.06
2019-02-20T15:21:50.285Z,31.18
2019-02-20T15:22:50.668Z,31.16
2019-02-20T15:23:50.209Z,31.06
2019-02-20T15:24:50.202Z,31.26
2019-02-20T15:25:53.602Z,31.28
2019-02-20T15:26:50.171Z,31.26
2019-02-20T15:27:50.172Z,31.06
2019-02-20T15:28:50.171Z,30.96
2019-02-20T15:29:50.145Z,30.98
2019-02-20T15:30:50.186Z,31.28
2019-02-20T15:31:50.109Z,31.26
2019-02-20T15:32:50.950Z,31.18
2019-02-20T15:33:50.099Z,31.28
2019-02-20T15:34:50.074Z,31.28
2019-02-20T15:35:50.070Z,31.28
2019-02-20T15:36:50.073Z,31.07
2019-02-20T15:37:50.079Z,30.96
2019-02-20T15:38:50.033Z,31.37
2019-02-20T15:39:50.049Z,31.28
2019-02-20T15:40:50.018Z,31.37
2019-02-20T15:41:50.059Z,31.37
2019-02-20T15:42:49.992Z,31.28
2019-02-20T15:43:51.523Z,31.28
2019-02-20T15:44:49.973Z,31.37
2019-02-20T15:45:49.959Z,31.07
2019-02-20T15:46:49.981Z,31.28
2019-02-20T15:47:49.937Z,31.37
2019-02-20T15:48:49.941Z,31.37
2019-02-20T15:49:50.027Z,31.98
2019-02-20T15:50:49.902Z,31.37
2019-02-20T15:51:49.891Z,32.08
2019-02-20T15:52:50.695Z,32.08
2019-02-20T15:53:49.879Z,31.07
2019-02-20T15:54:49.856Z,31.28
2019-02-20T15:55:49.839Z,31.28
2019-02-20T15:56:49.831Z,30.78
2019-02-20T15:57:49.977Z,31.98
2019-02-20T15:58:49.840Z,31.87
2019-02-20T15:59:49.809Z,31.87
2019-02-20T16:00:49.797Z,31.87
2019-02-20T16:01:49.780Z,31.78
2019-02-20T16:02:49.772Z,31.78
2019-02-20T16:03:49.791Z,31.87
2019-02-20T16:04:49.756Z,31.78
2019-02-20T16:05:49.736Z,31.98
2019-02-20T16:06:49.738Z,32.17
2019-02-20T16:07:49.767Z,32.08
2019-02-20T16:08:49.710Z,31.98
2019-02-20T16:09:49.708Z,31.87
2019-02-20T16:10:49.678Z,31.87
2019-02-20T16:11:49.695Z,31.87
2019-02-20T16:12:49.760Z,32.49
2019-02-20T16:13:50.205Z,32.17
2019-02-20T16:14:49.695Z,31.87
2019-02-20T16:15:49.634Z,32.08
2019-02-20T16:16:49.627Z,31.57
2019-02-20T16:17:49.624Z,31.57
2019-02-20T16:18:49.643Z,31.87
2019-02-20T16:19:49.604Z,31.98
2019-02-20T16:20:49.605Z,31.99
2019-02-20T16:21:49.567Z,31.59
2019-02-20T16:22:49.559Z,31.89
2019-02-20T16:23:49.562Z,31.89
2019-02-20T16:24:49.525Z,31.89
2019-02-20T16:25:49.521Z,31.89
2019-02-20T16:26:49.511Z,32.09
2019-02-20T16:27:49.524Z,32.29
2019-02-20T16:28:49.484Z,31.69
2019-02-20T16:29:49.470Z,32.09
2019-02-20T16:30:49.466Z,31.89
2019-02-20T16:31:49.478Z,32.09
2019-02-20T16:32:51.203Z,32.09
2019-02-20T16:33:49.530Z,32.09
2019-02-20T16:34:49.418Z,32.09
2019-02-20T16:35:49.413Z,32.09
2019-02-20T16:36:49.410Z,31.89
2019-02-20T16:37:49.386Z,31.89
2019-02-20T16:38:49.384Z,31.79
2019-02-20T16:39:49.373Z,31.69
2019-02-20T16:40:49.368Z,31.89
2019-02-20T16:41:49.348Z,31.79
2019-02-20T16:42:49.335Z,31.79
2019-02-20T16:43:49.335Z,31.79
2019-02-20T16:44:49.311Z,32.09
2019-02-20T16:45:49.314Z,31.89
2019-02-20T16:46:49.294Z,32.39
2019-02-20T16:47:49.282Z,32.49
2019-02-20T16:48:49.276Z,32.79
2019-02-20T16:49:49.354Z,33.09
2019-02-20T16:50:49.254Z,32.59
2019-02-20T16:51:49.241Z,32.49
2019-02-20T16:52:49.226Z,32.49
2019-02-20T16:53:49.210Z,32.69
2019-02-20T16:54:49.197Z,32.79
2019-02-20T16:55:49.195Z,32.39
2019-02-20T16:56:49.184Z,32.49
2019-02-20T16:57:56.387Z,32.19
2019-02-20T16:59:10.634Z,32.29
2019-02-20T17:00:12.186Z,32.69
2019-02-20T17:01:10.635Z,32.69
2019-02-20T17:02:10.597Z,32.39
2019-02-20T17:03:10.600Z,32.19
2019-02-20T17:04:10.584Z,32.29
2019-02-20T17:05:14.183Z,32.59
2019-02-20T17:06:12.648Z,32.59
2019-02-20T17:07:10.546Z,32.49
2019-02-20T17:08:10.526Z,32.49
2019-02-20T17:09:10.519Z,32.49
2019-02-20T17:10:10.568Z,32.49
2019-02-20T17:11:10.506Z,32.89
2019-02-20T17:12:10.493Z,32.50
2019-02-20T17:13:10.470Z,32.39
2019-02-20T17:14:10.509Z,32.29
2019-02-20T17:15:10.476Z,32.19
2019-02-20T17:16:10.505Z,32.81
2019-02-20T17:17:10.452Z,32.20
2019-02-20T17:18:10.425Z,32.40
2019-02-20T17:19:11.628Z,33.19
2019-02-20T17:20:10.399Z,33.11
2019-02-20T17:21:10.399Z,33.00
2019-02-20T17:22:10.373Z,32.99
2019-02-20T17:23:10.368Z,32.79
2019-02-20T17:24:10.361Z,33.00
2019-02-20T17:25:10.340Z,33.31
2019-02-20T17:26:10.343Z,33.11
2019-02-20T17:27:10.321Z,33.50
2019-02-20T17:28:10.305Z,33.31
2019-02-20T17:29:10.300Z,33.50
2019-02-20T17:30:10.301Z,33.31
2019-02-20T17:31:10.277Z,33.41
2019-02-20T17:32:10.292Z,33.41
2019-02-20T17:33:10.249Z,33.41
2019-02-20T17:34:10.239Z,32.91
2019-02-20T17:35:10.266Z,33.11
2019-02-20T17:36:10.216Z,33.20
2019-02-20T17:37:10.205Z,33.41
2019-02-20T17:38:10.229Z,33.09
2019-02-20T17:39:10.650Z,33.20
2019-02-20T17:40:10.177Z,33.09
2019-02-20T17:41:10.164Z,33.00
2019-02-20T17:42:10.146Z,32.99
2019-02-20T17:43:10.169Z,33.41
2019-02-20T17:44:11.635Z,32.99
2019-02-20T17:45:10.126Z,33.20
2019-02-20T17:46:10.109Z,33.20
2019-02-20T17:47:10.096Z,33.19
2019-02-20T17:48:10.085Z,33.11
2019-02-20T17:49:10.085Z,33.19
2019-02-20T17:50:10.074Z,33.59
2019-02-20T17:51:10.086Z,33.09
2019-02-20T17:52:10.037Z,33.00
2019-02-20T17:53:11.069Z,33.59
2019-02-20T17:54:10.026Z,33.20
2019-02-20T17:55:10.023Z,33.81
2019-02-20T17:56:09.989Z,33.20
2019-02-20T17:57:11.282Z,33.41
2019-02-20T17:58:15.272Z,33.70
2019-02-20T17:59:09.962Z,33.20
2019-02-20T18:00:09.963Z,33.20
2019-02-20T18:01:09.943Z,33.41
2019-02-20T18:02:09.924Z,33.81
2019-02-20T18:03:09.917Z,33.50
2019-02-20T18:04:09.949Z,33.81
2019-02-20T18:05:09.941Z,33.50
2019-02-20T18:06:09.889Z,33.81
2019-02-20T18:07:09.878Z,33.81
2019-02-20T18:08:09.881Z,33.31
2019-02-20T18:09:09.853Z,33.31
2019-02-20T18:10:09.837Z,33.20
2019-02-20T18:11:09.834Z,33.31
2019-02-20T18:12:09.904Z,33.50
2019-02-20T18:13:09.817Z,33.31
2019-02-20T18:14:10.015Z,33.31
2019-02-20T18:15:09.796Z,33.31
2019-02-20T18:16:09.775Z,33.31
2019-02-20T18:17:09.767Z,33.31
2019-02-20T18:18:09.766Z,33.41
2019-02-20T18:19:09.741Z,33.41
2019-02-20T18:20:09.769Z,33.41
2019-02-20T18:21:09.721Z,33.31
2019-02-20T18:22:09.767Z,33.41
2019-02-20T18:23:09.693Z,33.41
2019-02-20T18:24:09.688Z,33.41
2019-02-20T18:25:09.987Z,33.31
2019-02-20T18:26:09.756Z,33.41
2019-02-20T18:27:09.649Z,33.31
2019-02-20T18:28:09.637Z,33.31
2019-02-20T18:29:09.628Z,33.31
2019-02-20T18:30:09.613Z,33.31
2019-02-20T18:31:09.602Z,33.41
2019-02-20T18:32:09.593Z,33.31
2019-02-20T18:33:09.587Z,33.31
2019-02-20T18:34:09.616Z,33.32
2019-02-20T18:35:09.565Z,33.41
2019-02-20T18:37:09.577Z,33.31
2019-02-20T18:38:09.532Z,33.31
2019-02-20T18:39:09.543Z,33.31
2019-02-20T18:40:09.498Z,33.41
2019-02-20T18:41:09.491Z,33.31
2019-02-20T18:42:09.577Z,33.31
2019-02-20T18:43:09.474Z,33.31
2019-02-20T18:44:09.475Z,33.31
2019-02-20T18:45:09.454Z,33.42
2019-02-20T18:46:09.447Z,33.41
2019-02-20T18:48:09.432Z,33.31
2019-02-20T18:49:09.559Z,33.32
2019-02-20T18:50:09.388Z,33.41
2019-02-20T18:51:09.387Z,33.31
2019-02-20T18:52:09.377Z,33.31
2019-02-20T18:53:09.357Z,33.31
2019-02-20T18:54:09.439Z,33.42
2019-02-20T18:55:09.358Z,33.32
2019-02-20T18:56:09.325Z,33.32
2019-02-20T18:57:09.341Z,33.20
2019-02-20T18:58:09.302Z,33.31
2019-02-20T18:59:09.318Z,33.31
2019-02-20T19:00:09.288Z,33.31
2019-02-20T19:01:09.263Z,33.31
2019-02-20T19:02:09.359Z,33.32
2019-02-20T19:03:09.279Z,33.32
2019-02-20T19:04:09.254Z,33.32
2019-02-20T19:05:09.219Z,33.32
2019-02-20T19:06:09.209Z,33.32
2019-02-20T19:08:09.219Z,33.42
2019-02-20T19:10:09.176Z,33.41
2019-02-20T19:11:09.157Z,33.22
2019-02-20T19:12:09.152Z,33.32
2019-02-20T19:13:09.152Z,33.22
2019-02-20T19:14:09.451Z,33.32
2019-02-20T19:15:10.209Z,33.22
2019-02-20T19:16:09.109Z,33.50
2019-02-20T19:17:09.106Z,33.61
2019-02-20T19:18:09.167Z,33.22
2019-02-20T19:19:09.174Z,33.82
2019-02-20T19:20:09.151Z,33.50
2019-02-20T19:21:09.058Z,33.50
2019-02-20T19:22:09.043Z,33.62
2019-02-20T19:23:09.024Z,33.82
2019-02-20T19:24:09.028Z,33.32
2019-02-20T19:25:09.020Z,33.50
2019-02-20T19:27:08.992Z,33.72
2019-02-20T19:28:08.979Z,33.52
2019-02-20T19:29:08.968Z,33.62
2019-02-20T19:30:09.748Z,33.52
2019-02-20T19:31:09.231Z,33.81
2019-02-20T19:32:08.931Z,33.52
2019-02-20T19:34:08.933Z,33.20
2019-02-20T19:35:08.889Z,33.52
2019-02-20T19:36:08.879Z,33.52
2019-02-20T19:37:08.907Z,33.52
2019-02-20T19:38:09.589Z,33.50
2019-02-20T19:39:08.839Z,33.52
2019-02-20T19:40:08.853Z,33.22
2019-02-20T19:41:08.827Z,33.42
2019-02-20T19:42:08.832Z,33.52
2019-02-20T19:44:08.806Z,33.32